sensor_id;sensor_type;location;lat;lon;timestamp;P1;durP1;ratioP1;P2;durP2;ratioP2
68870;SDS011;55906;52.278;6.808;2023-03-05T00:00:10;11.88;;;5.22;;
68870;SDS011;55906;52.278;6.808;2023-03-05T00:02:38;6.78;;;5.18;;
68870;SDS011;55906;52.278;6.808;2023-03-05T00:05:06;11.38;;;5.07;;
68870;SDS011;55906;52.278;6.808;2023-03-05T00:07:34;10.60;;;5.28;;
68870;SDS011;55906;52.278;6.808;2023-03-05T00:10:00;8.85;;;5.38;;
68870;SDS011;55906;52.278;6.808;2023-03-05T00:12:29;6.00;;;4.50;;
68870;SDS011;55906;52.278;6.808;2023-03-05T00:14:57;7.65;;;4.93;;
68870;SDS011;55906;52.278;6.808;2023-03-05T00:17:23;7.65;;;4.78;;
68870;SDS011;55906;52.278;6.808;2023-03-05T00:19:50;7.53;;;5.18;;
68870;SDS011;55906;52.278;6.808;2023-03-05T00:22:16;8.15;;;4.53;;
68870;SDS011;55906;52.278;6.808;2023-03-05T00:24:43;13.35;;;4.70;;
68870;SDS011;55906;52.278;6.808;2023-03-05T00:27:10;9.35;;;7.15;;
68870;SDS011;55906;52.278;6.808;2023-03-05T00:29:37;7.07;;;5.37;;
68870;SDS011;55906;52.278;6.808;2023-03-05T00:32:05;9.60;;;5.60;;
68870;SDS011;55906;52.278;6.808;2023-03-05T00:34:32;6.57;;;5.15;;
68870;SDS011;55906;52.278;6.808;2023-03-05T00:37:00;9.07;;;5.07;;
68870;SDS011;55906;52.278;6.808;2023-03-05T00:39:27;8.70;;;4.80;;
68870;SDS011;55906;52.278;6.808;2023-03-05T00:41:53;9.20;;;5.35;;
68870;SDS011;55906;52.278;6.808;2023-03-05T00:44:20;10.70;;;5.15;;
68870;SDS011;55906;52.278;6.808;2023-03-05T00:46:47;9.75;;;4.88;;
68870;SDS011;55906;52.278;6.808;2023-03-05T00:49:15;8.43;;;5.30;;
68870;SDS011;55906;52.278;6.808;2023-03-05T00:51:42;11.30;;;4.65;;
68870;SDS011;55906;52.278;6.808;2023-03-05T00:54:08;8.00;;;4.20;;
68870;SDS011;55906;52.278;6.808;2023-03-05T00:56:35;7.60;;;5.10;;
68870;SDS011;55906;52.278;6.808;2023-03-05T00:59:02;6.57;;;4.30;;
68870;SDS011;55906;52.278;6.808;2023-03-05T01:01:28;7.53;;;4.87;;
68870;SDS011;55906;52.278;6.808;2023-03-05T01:03:55;5.72;;;4.53;;
68870;SDS011;55906;52.278;6.808;2023-03-05T01:06:25;10.13;;;4.50;;
68870;SDS011;55906;52.278;6.808;2023-03-05T01:08:53;9.32;;;5.85;;
68870;SDS011;55906;52.278;6.808;2023-03-05T01:11:20;9.05;;;5.43;;
68870;SDS011;55906;52.278;6.808;2023-03-05T01:13:47;11.23;;;5.85;;
68870;SDS011;55906;52.278;6.808;2023-03-05T01:16:13;7.88;;;4.65;;
68870;SDS011;55906;52.278;6.808;2023-03-05T01:18:40;8.43;;;4.50;;
68870;SDS011;55906;52.278;6.808;2023-03-05T01:21:07;9.88;;;5.15;;
68870;SDS011;55906;52.278;6.808;2023-03-05T01:23:35;6.50;;;4.45;;
68870;SDS011;55906;52.278;6.808;2023-03-05T01:26:02;9.97;;;5.70;;
68870;SDS011;55906;52.278;6.808;2023-03-05T01:28:29;7.10;;;4.18;;
68870;SDS011;55906;52.278;6.808;2023-03-05T01:30:56;12.00;;;5.55;;
68870;SDS011;55906;52.278;6.808;2023-03-05T01:33:23;9.80;;;4.85;;
68870;SDS011;55906;52.278;6.808;2023-03-05T01:35:50;9.38;;;5.40;;
68870;SDS011;55906;52.278;6.808;2023-03-05T01:38:17;8.32;;;5.45;;
68870;SDS011;55906;52.278;6.808;2023-03-05T01:40:45;7.75;;;4.65;;
68870;SDS011;55906;52.278;6.808;2023-03-05T01:43:19;8.43;;;4.40;;
68870;SDS011;55906;52.278;6.808;2023-03-05T01:46:16;6.80;;;4.30;;
68870;SDS011;55906;52.278;6.808;2023-03-05T01:48:55;8.43;;;4.63;;
68870;SDS011;55906;52.278;6.808;2023-03-05T01:51:28;7.63;;;4.80;;
68870;SDS011;55906;52.278;6.808;2023-03-05T01:53:57;10.23;;;4.38;;
68870;SDS011;55906;52.278;6.808;2023-03-05T01:56:27;12.23;;;5.30;;
68870;SDS011;55906;52.278;6.808;2023-03-05T01:58:55;10.80;;;5.28;;
68870;SDS011;55906;52.278;6.808;2023-03-05T02:01:27;12.55;;;5.40;;
68870;SDS011;55906;52.278;6.808;2023-03-05T02:03:55;6.78;;;4.55;;
68870;SDS011;55906;52.278;6.808;2023-03-05T02:06:22;9.82;;;5.43;;
68870;SDS011;55906;52.278;6.808;2023-03-05T02:08:49;9.17;;;4.30;;
68870;SDS011;55906;52.278;6.808;2023-03-05T02:11:16;9.63;;;4.93;;
68870;SDS011;55906;52.278;6.808;2023-03-05T02:13:44;7.55;;;4.30;;
68870;SDS011;55906;52.278;6.808;2023-03-05T02:16:11;10.63;;;4.70;;
68870;SDS011;55906;52.278;6.808;2023-03-05T02:18:38;6.78;;;4.50;;
68870;SDS011;55906;52.278;6.808;2023-03-05T02:21:06;13.85;;;4.70;;
68870;SDS011;55906;52.278;6.808;2023-03-05T02:23:34;9.07;;;5.22;;
68870;SDS011;55906;52.278;6.808;2023-03-05T02:26:03;9.55;;;5.38;;
68870;SDS011;55906;52.278;6.808;2023-03-05T02:28:33;9.43;;;4.90;;
68870;SDS011;55906;52.278;6.808;2023-03-05T02:31:07;8.48;;;4.95;;
68870;SDS011;55906;52.278;6.808;2023-03-05T02:33:35;8.83;;;4.43;;
68870;SDS011;55906;52.278;6.808;2023-03-05T02:36:02;8.00;;;4.78;;
68870;SDS011;55906;52.278;6.808;2023-03-05T02:38:30;9.13;;;4.43;;
68870;SDS011;55906;52.278;6.808;2023-03-05T02:40:57;7.80;;;4.50;;
68870;SDS011;55906;52.278;6.808;2023-03-05T02:43:23;8.30;;;4.70;;
68870;SDS011;55906;52.278;6.808;2023-03-05T02:45:50;8.60;;;5.20;;
68870;SDS011;55906;52.278;6.808;2023-03-05T02:48:17;8.70;;;4.60;;
68870;SDS011;55906;52.278;6.808;2023-03-05T02:50:44;8.00;;;4.65;;
68870;SDS011;55906;52.278;6.808;2023-03-05T02:53:12;10.75;;;4.93;;
68870;SDS011;55906;52.278;6.808;2023-03-05T02:55:40;12.88;;;5.38;;
68870;SDS011;55906;52.278;6.808;2023-03-05T02:58:07;6.93;;;4.37;;
68870;SDS011;55906;52.278;6.808;2023-03-05T03:00:33;11.30;;;4.93;;
68870;SDS011;55906;52.278;6.808;2023-03-05T03:03:00;7.00;;;4.57;;
68870;SDS011;55906;52.278;6.808;2023-03-05T03:05:27;7.83;;;4.57;;
68870;SDS011;55906;52.278;6.808;2023-03-05T03:07:53;10.75;;;4.18;;
68870;SDS011;55906;52.278;6.808;2023-03-05T03:10:20;7.55;;;4.57;;
68870;SDS011;55906;52.278;6.808;2023-03-05T03:12:48;5.13;;;4.10;;
68870;SDS011;55906;52.278;6.808;2023-03-05T03:15:15;8.35;;;4.57;;
68870;SDS011;55906;52.278;6.808;2023-03-05T03:17:42;9.10;;;5.20;;
68870;SDS011;55906;52.278;6.808;2023-03-05T03:20:10;7.65;;;4.40;;
68870;SDS011;55906;52.278;6.808;2023-03-05T03:22:41;14.97;;;4.57;;
68870;SDS011;55906;52.278;6.808;2023-03-05T03:25:08;6.78;;;4.00;;
68870;SDS011;55906;52.278;6.808;2023-03-05T03:27:36;8.70;;;4.20;;
68870;SDS011;55906;52.278;6.808;2023-03-05T03:30:05;7.07;;;3.90;;
68870;SDS011;55906;52.278;6.808;2023-03-05T03:32:32;9.77;;;4.72;;
68870;SDS011;55906;52.278;6.808;2023-03-05T03:34:59;9.40;;;4.25;;
68870;SDS011;55906;52.278;6.808;2023-03-05T03:37:26;10.90;;;4.43;;
68870;SDS011;55906;52.278;6.808;2023-03-05T03:39:53;7.97;;;4.78;;
68870;SDS011;55906;52.278;6.808;2023-03-05T03:42:20;8.48;;;4.05;;
68870;SDS011;55906;52.278;6.808;2023-03-05T03:44:48;9.02;;;4.50;;
68870;SDS011;55906;52.278;6.808;2023-03-05T03:47:16;9.53;;;4.20;;
68870;SDS011;55906;52.278;6.808;2023-03-05T03:49:43;7.40;;;3.95;;
68870;SDS011;55906;52.278;6.808;2023-03-05T03:52:11;8.27;;;4.35;;
68870;SDS011;55906;52.278;6.808;2023-03-05T03:54:38;6.93;;;3.97;;
68870;SDS011;55906;52.278;6.808;2023-03-05T03:57:05;10.93;;;4.30;;
68870;SDS011;55906;52.278;6.808;2023-03-05T03:59:32;7.80;;;4.95;;
68870;SDS011;55906;52.278;6.808;2023-03-05T04:01:58;6.57;;;4.65;;
68870;SDS011;55906;52.278;6.808;2023-03-05T04:04:26;6.18;;;5.03;;
68870;SDS011;55906;52.278;6.808;2023-03-05T04:06:54;8.77;;;4.47;;
68870;SDS011;55906;52.278;6.808;2023-03-05T04:09:21;9.18;;;4.28;;
68870;SDS011;55906;52.278;6.808;2023-03-05T04:11:47;7.50;;;4.20;;
68870;SDS011;55906;52.278;6.808;2023-03-05T04:14:14;8.82;;;4.53;;
68870;SDS011;55906;52.278;6.808;2023-03-05T04:16:40;8.05;;;4.32;;
68870;SDS011;55906;52.278;6.808;2023-03-05T04:19:07;6.70;;;4.00;;
68870;SDS011;55906;52.278;6.808;2023-03-05T04:21:35;8.75;;;3.92;;
68870;SDS011;55906;52.278;6.808;2023-03-05T04:24:02;8.10;;;4.07;;
68870;SDS011;55906;52.278;6.808;2023-03-05T04:26:28;9.93;;;4.93;;
68870;SDS011;55906;52.278;6.808;2023-03-05T04:28:55;7.85;;;4.35;;
68870;SDS011;55906;52.278;6.808;2023-03-05T04:31:22;6.68;;;4.53;;
68870;SDS011;55906;52.278;6.808;2023-03-05T04:33:48;7.32;;;4.30;;
68870;SDS011;55906;52.278;6.808;2023-03-05T04:36:15;8.23;;;4.17;;
68870;SDS011;55906;52.278;6.808;2023-03-05T04:38:43;10.75;;;4.43;;
68870;SDS011;55906;52.278;6.808;2023-03-05T04:41:10;6.13;;;3.88;;
68870;SDS011;55906;52.278;6.808;2023-03-05T04:43:36;5.50;;;3.70;;
68870;SDS011;55906;52.278;6.808;2023-03-05T04:46:03;7.85;;;3.70;;
68870;SDS011;55906;52.278;6.808;2023-03-05T04:48:30;8.73;;;4.00;;
68870;SDS011;55906;52.278;6.808;2023-03-05T04:50:56;7.95;;;4.35;;
68870;SDS011;55906;52.278;6.808;2023-03-05T04:53:23;7.70;;;4.43;;
68870;SDS011;55906;52.278;6.808;2023-03-05T04:55:52;6.63;;;4.38;;
68870;SDS011;55906;52.278;6.808;2023-03-05T04:58:19;12.18;;;4.28;;
68870;SDS011;55906;52.278;6.808;2023-03-05T05:00:46;9.07;;;4.00;;
68870;SDS011;55906;52.278;6.808;2023-03-05T05:03:13;7.50;;;4.18;;
68870;SDS011;55906;52.278;6.808;2023-03-05T05:05:40;6.95;;;4.35;;
68870;SDS011;55906;52.278;6.808;2023-03-05T05:08:06;10.37;;;4.93;;
68870;SDS011;55906;52.278;6.808;2023-03-05T05:10:33;9.27;;;3.75;;
68870;SDS011;55906;52.278;6.808;2023-03-05T05:13:04;7.05;;;4.45;;
68870;SDS011;55906;52.278;6.808;2023-03-05T05:15:30;12.65;;;4.55;;
68870;SDS011;55906;52.278;6.808;2023-03-05T05:17:57;6.38;;;4.57;;
68870;SDS011;55906;52.278;6.808;2023-03-05T05:20:24;7.13;;;4.63;;
68870;SDS011;55906;52.278;6.808;2023-03-05T05:22:50;7.68;;;4.65;;
68870;SDS011;55906;52.278;6.808;2023-03-05T05:25:17;6.53;;;4.20;;
68870;SDS011;55906;52.278;6.808;2023-03-05T05:27:44;6.55;;;4.22;;
68870;SDS011;55906;52.278;6.808;2023-03-05T05:30:12;8.15;;;4.20;;
68870;SDS011;55906;52.278;6.808;2023-03-05T05:32:39;9.37;;;4.40;;
68870;SDS011;55906;52.278;6.808;2023-03-05T05:35:06;10.07;;;4.43;;
68870;SDS011;55906;52.278;6.808;2023-03-05T05:37:33;10.43;;;4.72;;
68870;SDS011;55906;52.278;6.808;2023-03-05T05:39:59;5.75;;;4.15;;
68870;SDS011;55906;52.278;6.808;2023-03-05T05:42:26;5.82;;;3.88;;
68870;SDS011;55906;52.278;6.808;2023-03-05T05:44:53;5.95;;;4.20;;
68870;SDS011;55906;52.278;6.808;2023-03-05T05:47:21;6.40;;;4.70;;
68870;SDS011;55906;52.278;6.808;2023-03-05T05:49:48;7.30;;;3.77;;
68870;SDS011;55906;52.278;6.808;2023-03-05T05:52:14;8.15;;;4.60;;
68870;SDS011;55906;52.278;6.808;2023-03-05T05:54:41;9.40;;;4.53;;
68870;SDS011;55906;52.278;6.808;2023-03-05T05:57:08;7.57;;;4.03;;
68870;SDS011;55906;52.278;6.808;2023-03-05T05:59:35;6.05;;;4.43;;
68870;SDS011;55906;52.278;6.808;2023-03-05T06:02:02;8.10;;;4.20;;
68870;SDS011;55906;52.278;6.808;2023-03-05T06:04:30;7.93;;;4.43;;
68870;SDS011;55906;52.278;6.808;2023-03-05T06:06:57;6.97;;;4.78;;
68870;SDS011;55906;52.278;6.808;2023-03-05T06:09:23;9.27;;;5.25;;
68870;SDS011;55906;52.278;6.808;2023-03-05T06:11:50;7.50;;;4.53;;
68870;SDS011;55906;52.278;6.808;2023-03-05T06:14:17;7.00;;;4.50;;
68870;SDS011;55906;52.278;6.808;2023-03-05T06:16:43;7.00;;;4.47;;
68870;SDS011;55906;52.278;6.808;2023-03-05T06:19:10;8.18;;;5.25;;
68870;SDS011;55906;52.278;6.808;2023-03-05T06:21:38;7.10;;;4.23;;
68870;SDS011;55906;52.278;6.808;2023-03-05T06:24:07;7.93;;;3.92;;
68870;SDS011;55906;52.278;6.808;2023-03-05T06:26:34;9.48;;;4.97;;
68870;SDS011;55906;52.278;6.808;2023-03-05T06:29:01;6.05;;;3.67;;
68870;SDS011;55906;52.278;6.808;2023-03-05T06:31:27;9.00;;;3.90;;
68870;SDS011;55906;52.278;6.808;2023-03-05T06:33:55;10.07;;;4.00;;
68870;SDS011;55906;52.278;6.808;2023-03-05T06:36:25;10.60;;;5.30;;
68870;SDS011;55906;52.278;6.808;2023-03-05T06:38:53;7.13;;;4.70;;
68870;SDS011;55906;52.278;6.808;2023-03-05T06:41:21;8.32;;;4.45;;
68870;SDS011;55906;52.278;6.808;2023-03-05T06:43:49;7.15;;;4.32;;
68870;SDS011;55906;52.278;6.808;2023-03-05T06:46:17;5.63;;;4.43;;
68870;SDS011;55906;52.278;6.808;2023-03-05T06:48:45;6.20;;;4.13;;
68870;SDS011;55906;52.278;6.808;2023-03-05T06:51:13;6.68;;;4.78;;
68870;SDS011;55906;52.278;6.808;2023-03-05T06:53:40;6.53;;;5.10;;
68870;SDS011;55906;52.278;6.808;2023-03-05T06:56:09;5.40;;;3.92;;
68870;SDS011;55906;52.278;6.808;2023-03-05T06:58:38;7.30;;;4.90;;
68870;SDS011;55906;52.278;6.808;2023-03-05T07:01:06;7.88;;;4.53;;
68870;SDS011;55906;52.278;6.808;2023-03-05T07:03:33;5.77;;;3.97;;
68870;SDS011;55906;52.278;6.808;2023-03-05T07:06:01;6.10;;;4.53;;
68870;SDS011;55906;52.278;6.808;2023-03-05T07:08:29;7.90;;;4.97;;
68870;SDS011;55906;52.278;6.808;2023-03-05T07:10:55;8.67;;;4.77;;
68870;SDS011;55906;52.278;6.808;2023-03-05T07:13:24;8.90;;;4.82;;
68870;SDS011;55906;52.278;6.808;2023-03-05T07:15:51;8.20;;;4.60;;
68870;SDS011;55906;52.278;6.808;2023-03-05T07:18:18;5.85;;;4.20;;
68870;SDS011;55906;52.278;6.808;2023-03-05T07:20:44;7.28;;;4.20;;
68870;SDS011;55906;52.278;6.808;2023-03-05T07:23:11;8.32;;;4.60;;
68870;SDS011;55906;52.278;6.808;2023-03-05T07:25:38;9.35;;;4.40;;
68870;SDS011;55906;52.278;6.808;2023-03-05T07:28:05;12.70;;;4.60;;
68870;SDS011;55906;52.278;6.808;2023-03-05T07:30:33;6.13;;;4.93;;
68870;SDS011;55906;52.278;6.808;2023-03-05T07:33:00;8.32;;;4.50;;
68870;SDS011;55906;52.278;6.808;2023-03-05T07:35:27;10.03;;;4.93;;
68870;SDS011;55906;52.278;6.808;2023-03-05T07:37:53;4.97;;;3.80;;
68870;SDS011;55906;52.278;6.808;2023-03-05T07:40:21;8.98;;;5.22;;
68870;SDS011;55906;52.278;6.808;2023-03-05T07:42:48;9.98;;;4.38;;
68870;SDS011;55906;52.278;6.808;2023-03-05T07:45:14;7.43;;;3.72;;
68870;SDS011;55906;52.278;6.808;2023-03-05T07:47:42;8.35;;;4.50;;
68870;SDS011;55906;52.278;6.808;2023-03-05T07:50:09;8.15;;;4.60;;
68870;SDS011;55906;52.278;6.808;2023-03-05T07:52:36;5.87;;;4.60;;
68870;SDS011;55906;52.278;6.808;2023-03-05T07:55:03;7.95;;;4.03;;
68870;SDS011;55906;52.278;6.808;2023-03-05T07:57:30;6.32;;;3.78;;
68870;SDS011;55906;52.278;6.808;2023-03-05T07:59:57;8.30;;;4.20;;
68870;SDS011;55906;52.278;6.808;2023-03-05T08:02:23;5.20;;;3.85;;
68870;SDS011;55906;52.278;6.808;2023-03-05T08:04:51;7.15;;;4.28;;
68870;SDS011;55906;52.278;6.808;2023-03-05T08:07:18;5.07;;;3.70;;
68870;SDS011;55906;52.278;6.808;2023-03-05T08:09:44;5.00;;;3.53;;
68870;SDS011;55906;52.278;6.808;2023-03-05T08:12:11;5.25;;;3.80;;
68870;SDS011;55906;52.278;6.808;2023-03-05T08:14:38;6.00;;;4.15;;
68870;SDS011;55906;52.278;6.808;2023-03-05T08:17:04;6.78;;;3.67;;
68870;SDS011;55906;52.278;6.808;2023-03-05T08:19:32;5.63;;;3.85;;
68870;SDS011;55906;52.278;6.808;2023-03-05T08:22:00;4.35;;;3.70;;
68870;SDS011;55906;52.278;6.808;2023-03-05T08:24:27;5.80;;;3.63;;
68870;SDS011;55906;52.278;6.808;2023-03-05T08:26:54;7.50;;;4.57;;
68870;SDS011;55906;52.278;6.808;2023-03-05T08:29:21;5.13;;;3.40;;
68870;SDS011;55906;52.278;6.808;2023-03-05T08:31:48;6.38;;;3.97;;
68870;SDS011;55906;52.278;6.808;2023-03-05T08:34:15;5.20;;;3.60;;
68870;SDS011;55906;52.278;6.808;2023-03-05T08:36:42;6.10;;;3.80;;
68870;SDS011;55906;52.278;6.808;2023-03-05T08:39:10;5.57;;;3.05;;
68870;SDS011;55906;52.278;6.808;2023-03-05T08:41:37;4.85;;;3.40;;
68870;SDS011;55906;52.278;6.808;2023-03-05T08:44:03;6.22;;;3.47;;
68870;SDS011;55906;52.278;6.808;2023-03-05T08:46:30;5.10;;;3.70;;
68870;SDS011;55906;52.278;6.808;2023-03-05T08:48:57;6.00;;;3.15;;
68870;SDS011;55906;52.278;6.808;2023-03-05T08:51:24;4.75;;;3.45;;
68870;SDS011;55906;52.278;6.808;2023-03-05T08:53:52;5.53;;;3.47;;
68870;SDS011;55906;52.278;6.808;2023-03-05T08:56:21;6.13;;;3.83;;
68870;SDS011;55906;52.278;6.808;2023-03-05T08:58:50;6.53;;;3.78;;
68870;SDS011;55906;52.278;6.808;2023-03-05T09:01:18;7.50;;;3.67;;
68870;SDS011;55906;52.278;6.808;2023-03-05T09:03:46;6.15;;;3.08;;
68870;SDS011;55906;52.278;6.808;2023-03-05T09:06:13;5.63;;;3.10;;
68870;SDS011;55906;52.278;6.808;2023-03-05T09:08:40;4.32;;;3.15;;
68870;SDS011;55906;52.278;6.808;2023-03-05T09:11:07;5.95;;;3.53;;
68870;SDS011;55906;52.278;6.808;2023-03-05T09:13:36;5.30;;;3.30;;
68870;SDS011;55906;52.278;6.808;2023-03-05T09:16:05;3.30;;;2.40;;
68870;SDS011;55906;52.278;6.808;2023-03-05T09:18:33;4.67;;;3.00;;
68870;SDS011;55906;52.278;6.808;2023-03-05T09:21:03;4.90;;;2.95;;
68870;SDS011;55906;52.278;6.808;2023-03-05T09:23:30;4.97;;;3.15;;
68870;SDS011;55906;52.278;6.808;2023-03-05T09:25:57;7.35;;;3.30;;
68870;SDS011;55906;52.278;6.808;2023-03-05T09:28:23;7.22;;;3.58;;
68870;SDS011;55906;52.278;6.808;2023-03-05T09:30:51;5.47;;;3.10;;
68870;SDS011;55906;52.278;6.808;2023-03-05T09:33:19;4.40;;;3.20;;
68870;SDS011;55906;52.278;6.808;2023-03-05T09:35:45;6.65;;;3.10;;
68870;SDS011;55906;52.278;6.808;2023-03-05T09:38:12;6.95;;;3.78;;
68870;SDS011;55906;52.278;6.808;2023-03-05T09:40:41;4.10;;;2.92;;
68870;SDS011;55906;52.278;6.808;2023-03-05T09:43:14;6.67;;;3.20;;
68870;SDS011;55906;52.278;6.808;2023-03-05T09:45:57;4.20;;;2.88;;
68870;SDS011;55906;52.278;6.808;2023-03-05T09:48:37;4.85;;;2.90;;
68870;SDS011;55906;52.278;6.808;2023-03-05T09:51:15;4.25;;;2.75;;
68870;SDS011;55906;52.278;6.808;2023-03-05T09:53:48;6.50;;;2.75;;
68870;SDS011;55906;52.278;6.808;2023-03-05T09:56:20;5.50;;;3.20;;
68870;SDS011;55906;52.278;6.808;2023-03-05T09:58:49;4.35;;;2.70;;
68870;SDS011;55906;52.278;6.808;2023-03-05T10:01:21;4.85;;;2.50;;
68870;SDS011;55906;52.278;6.808;2023-03-05T10:03:54;5.75;;;2.35;;
68870;SDS011;55906;52.278;6.808;2023-03-05T10:06:23;4.65;;;2.40;;
68870;SDS011;55906;52.278;6.808;2023-03-05T10:08:53;4.53;;;2.23;;
68870;SDS011;55906;52.278;6.808;2023-03-05T10:14:11;4.38;;;2.20;;
68870;SDS011;55906;52.278;6.808;2023-03-05T10:17:04;5.25;;;2.20;;
68870;SDS011;55906;52.278;6.808;2023-03-05T10:23:04;3.93;;;2.07;;
68870;SDS011;55906;52.278;6.808;2023-03-05T10:25:53;3.92;;;2.08;;
68870;SDS011;55906;52.278;6.808;2023-03-05T10:28:28;4.68;;;2.25;;
68870;SDS011;55906;52.278;6.808;2023-03-05T10:31:12;5.13;;;2.30;;
68870;SDS011;55906;52.278;6.808;2023-03-05T10:34:08;3.70;;;1.65;;
68870;SDS011;55906;52.278;6.808;2023-03-05T10:36:55;4.90;;;2.10;;
68870;SDS011;55906;52.278;6.808;2023-03-05T10:39:53;4.15;;;2.47;;
68870;SDS011;55906;52.278;6.808;2023-03-05T10:42:26;5.70;;;2.20;;
68870;SDS011;55906;52.278;6.808;2023-03-05T10:44:56;6.57;;;2.10;;
68870;SDS011;55906;52.278;6.808;2023-03-05T10:47:25;4.90;;;2.08;;
68870;SDS011;55906;52.278;6.808;2023-03-05T10:49:57;5.80;;;2.17;;
68870;SDS011;55906;52.278;6.808;2023-03-05T10:52:26;5.82;;;2.30;;
68870;SDS011;55906;52.278;6.808;2023-03-05T10:54:58;5.05;;;2.15;;
68870;SDS011;55906;52.278;6.808;2023-03-05T10:57:25;4.70;;;2.03;;
68870;SDS011;55906;52.278;6.808;2023-03-05T10:59:53;7.10;;;2.20;;
68870;SDS011;55906;52.278;6.808;2023-03-05T11:02:26;3.80;;;2.27;;
68870;SDS011;55906;52.278;6.808;2023-03-05T11:04:52;5.70;;;2.28;;
68870;SDS011;55906;52.278;6.808;2023-03-05T11:07:34;6.80;;;2.65;;
68870;SDS011;55906;52.278;6.808;2023-03-05T11:10:05;5.43;;;2.13;;
68870;SDS011;55906;52.278;6.808;2023-03-05T11:12:43;4.70;;;2.60;;
68870;SDS011;55906;52.278;6.808;2023-03-05T11:15:21;5.43;;;2.70;;
68870;SDS011;55906;52.278;6.808;2023-03-05T11:18:03;4.95;;;2.53;;
68870;SDS011;55906;52.278;6.808;2023-03-05T11:20:45;4.45;;;2.42;;
68870;SDS011;55906;52.278;6.808;2023-03-05T11:23:14;4.40;;;2.30;;
68870;SDS011;55906;52.278;6.808;2023-03-05T11:28:54;5.33;;;2.50;;
68870;SDS011;55906;52.278;6.808;2023-03-05T11:31:23;5.13;;;3.30;;
68870;SDS011;55906;52.278;6.808;2023-03-05T11:33:56;5.93;;;2.20;;
68870;SDS011;55906;52.278;6.808;2023-03-05T11:36:25;4.80;;;2.40;;
68870;SDS011;55906;52.278;6.808;2023-03-05T11:38:57;5.85;;;2.63;;
68870;SDS011;55906;52.278;6.808;2023-03-05T11:41:28;3.73;;;2.43;;
68870;SDS011;55906;52.278;6.808;2023-03-05T11:43:58;4.05;;;2.47;;
68870;SDS011;55906;52.278;6.808;2023-03-05T11:46:30;6.45;;;2.63;;
68870;SDS011;55906;52.278;6.808;2023-03-05T11:49:03;5.60;;;2.42;;
68870;SDS011;55906;52.278;6.808;2023-03-05T11:51:35;4.80;;;2.45;;
68870;SDS011;55906;52.278;6.808;2023-03-05T11:54:08;4.57;;;2.17;;
68870;SDS011;55906;52.278;6.808;2023-03-05T11:56:41;5.25;;;2.67;;
68870;SDS011;55906;52.278;6.808;2023-03-05T11:59:12;5.78;;;2.47;;
68870;SDS011;55906;52.278;6.808;2023-03-05T12:01:44;5.18;;;2.75;;
68870;SDS011;55906;52.278;6.808;2023-03-05T12:04:13;7.55;;;3.00;;
68870;SDS011;55906;52.278;6.808;2023-03-05T12:06:42;6.77;;;3.30;;
68870;SDS011;55906;52.278;6.808;2023-03-05T12:09:13;4.20;;;2.78;;
68870;SDS011;55906;52.278;6.808;2023-03-05T12:11:46;6.60;;;3.17;;
68870;SDS011;55906;52.278;6.808;2023-03-05T12:14:17;5.57;;;2.72;;
68870;SDS011;55906;52.278;6.808;2023-03-05T12:16:50;5.45;;;3.13;;
68870;SDS011;55906;52.278;6.808;2023-03-05T12:19:32;5.93;;;3.23;;
68870;SDS011;55906;52.278;6.808;2023-03-05T12:22:13;5.53;;;3.28;;
68870;SDS011;55906;52.278;6.808;2023-03-05T12:24:43;4.47;;;3.00;;
68870;SDS011;55906;52.278;6.808;2023-03-05T12:27:11;5.50;;;2.65;;
68870;SDS011;55906;52.278;6.808;2023-03-05T12:29:56;8.88;;;2.75;;
68870;SDS011;55906;52.278;6.808;2023-03-05T12:35:22;6.28;;;2.85;;
68870;SDS011;55906;52.278;6.808;2023-03-05T12:40:48;5.47;;;3.05;;
68870;SDS011;55906;52.278;6.808;2023-03-05T12:46:21;5.70;;;3.70;;
68870;SDS011;55906;52.278;6.808;2023-03-05T12:48:48;5.68;;;2.97;;
68870;SDS011;55906;52.278;6.808;2023-03-05T12:51:29;7.30;;;3.70;;
68870;SDS011;55906;52.278;6.808;2023-03-05T12:54:18;5.20;;;3.05;;
68870;SDS011;55906;52.278;6.808;2023-03-05T12:56:51;6.40;;;3.13;;
68870;SDS011;55906;52.278;6.808;2023-03-05T12:59:20;9.03;;;3.10;;
68870;SDS011;55906;52.278;6.808;2023-03-05T13:01:51;4.72;;;2.83;;
68870;SDS011;55906;52.278;6.808;2023-03-05T13:04:22;8.75;;;3.28;;
68870;SDS011;55906;52.278;6.808;2023-03-05T13:06:58;8.07;;;3.30;;
68870;SDS011;55906;52.278;6.808;2023-03-05T13:09:27;5.22;;;2.60;;
68870;SDS011;55906;52.278;6.808;2023-03-05T13:11:57;5.97;;;3.10;;
68870;SDS011;55906;52.278;6.808;2023-03-05T13:14:29;4.05;;;2.30;;
68870;SDS011;55906;52.278;6.808;2023-03-05T13:16:58;5.82;;;2.92;;
68870;SDS011;55906;52.278;6.808;2023-03-05T13:19:25;5.65;;;3.00;;
68870;SDS011;55906;52.278;6.808;2023-03-05T13:21:56;6.70;;;3.20;;
68870;SDS011;55906;52.278;6.808;2023-03-05T13:24:23;5.97;;;3.10;;
68870;SDS011;55906;52.278;6.808;2023-03-05T13:26:50;6.95;;;3.78;;
68870;SDS011;55906;52.278;6.808;2023-03-05T13:29:19;6.57;;;2.70;;
68870;SDS011;55906;52.278;6.808;2023-03-05T13:31:47;5.55;;;2.60;;
68870;SDS011;55906;52.278;6.808;2023-03-05T13:34:17;5.10;;;3.00;;
68870;SDS011;55906;52.278;6.808;2023-03-05T13:36:47;6.40;;;2.77;;
68870;SDS011;55906;52.278;6.808;2023-03-05T13:39:19;6.40;;;2.45;;
68870;SDS011;55906;52.278;6.808;2023-03-05T13:41:58;4.32;;;2.40;;
68870;SDS011;55906;52.278;6.808;2023-03-05T13:44:27;4.55;;;2.50;;
68870;SDS011;55906;52.278;6.808;2023-03-05T13:47:05;4.60;;;2.78;;
68870;SDS011;55906;52.278;6.808;2023-03-05T13:49:34;4.50;;;2.27;;
68870;SDS011;55906;52.278;6.808;2023-03-05T13:52:01;3.78;;;2.05;;
68870;SDS011;55906;52.278;6.808;2023-03-05T13:54:28;5.18;;;2.67;;
68870;SDS011;55906;52.278;6.808;2023-03-05T13:56:55;3.95;;;2.40;;
68870;SDS011;55906;52.278;6.808;2023-03-05T13:59:24;4.32;;;2.70;;
68870;SDS011;55906;52.278;6.808;2023-03-05T14:01:55;4.17;;;2.37;;
68870;SDS011;55906;52.278;6.808;2023-03-05T14:04:23;4.88;;;2.60;;
68870;SDS011;55906;52.278;6.808;2023-03-05T14:06:52;4.57;;;2.60;;
68870;SDS011;55906;52.278;6.808;2023-03-05T14:09:24;5.22;;;2.75;;
68870;SDS011;55906;52.278;6.808;2023-03-05T14:11:55;4.40;;;2.55;;
68870;SDS011;55906;52.278;6.808;2023-03-05T14:14:24;4.07;;;2.43;;
68870;SDS011;55906;52.278;6.808;2023-03-05T14:16:53;5.07;;;2.60;;
68870;SDS011;55906;52.278;6.808;2023-03-05T14:19:30;6.15;;;2.85;;
68870;SDS011;55906;52.278;6.808;2023-03-05T14:21:59;4.63;;;2.80;;
68870;SDS011;55906;52.278;6.808;2023-03-05T14:24:27;4.78;;;3.15;;
68870;SDS011;55906;52.278;6.808;2023-03-05T14:26:56;3.97;;;3.10;;
68870;SDS011;55906;52.278;6.808;2023-03-05T14:29:25;3.67;;;2.97;;
68870;SDS011;55906;52.278;6.808;2023-03-05T14:31:55;5.07;;;3.17;;
68870;SDS011;55906;52.278;6.808;2023-03-05T14:34:24;3.72;;;2.60;;
68870;SDS011;55906;52.278;6.808;2023-03-05T14:36:55;5.80;;;2.95;;
68870;SDS011;55906;52.278;6.808;2023-03-05T14:39:27;4.17;;;2.83;;
68870;SDS011;55906;52.278;6.808;2023-03-05T14:44:49;4.28;;;3.03;;
68870;SDS011;55906;52.278;6.808;2023-03-05T14:47:17;4.88;;;3.20;;
68870;SDS011;55906;52.278;6.808;2023-03-05T14:49:44;5.65;;;3.22;;
68870;SDS011;55906;52.278;6.808;2023-03-05T14:52:12;5.63;;;3.60;;
68870;SDS011;55906;52.278;6.808;2023-03-05T14:54:41;7.80;;;5.03;;
68870;SDS011;55906;52.278;6.808;2023-03-05T14:57:09;6.18;;;4.53;;
68870;SDS011;55906;52.278;6.808;2023-03-05T14:59:40;6.10;;;4.32;;
68870;SDS011;55906;52.278;6.808;2023-03-05T15:02:09;5.47;;;3.70;;
68870;SDS011;55906;52.278;6.808;2023-03-05T15:04:42;7.43;;;3.87;;
68870;SDS011;55906;52.278;6.808;2023-03-05T15:07:12;8.75;;;4.57;;
68870;SDS011;55906;52.278;6.808;2023-03-05T15:09:42;6.05;;;4.53;;
68870;SDS011;55906;52.278;6.808;2023-03-05T15:12:09;6.47;;;4.55;;
68870;SDS011;55906;52.278;6.808;2023-03-05T15:14:39;7.70;;;5.03;;
68870;SDS011;55906;52.278;6.808;2023-03-05T15:17:09;9.63;;;5.87;;